Terminal Aerodrome Forecast
Issued by NWS

Home | Current Version | Previous Version | Graphics & Text | Print | Product List | Glossary On
Versions: 1 2 3 4 5 6 7 8 9 10 11 12 13 14
000
FTUS43 KICT 251143
TAFSLN
TAF
KSLN 251143Z 2512/2612 17005KT P6SM SCT150
     FM251700 22013KT P6SM SCT080
     FM252000 34022G30KT P6SM OVC060
     FM252200 36025G35KT P6SM OVC050=

USA.gov is the U.S. government's official web portal to all federal, state and local government web resources and services.